createdAt,value
2022-08-10T00:00:23.989Z,11.9
2022-08-10T00:02:52.211Z,12
2022-08-10T00:07:48.761Z,11.8
2022-08-10T00:10:16.999Z,12
2022-08-10T00:12:45.281Z,12.3
2022-08-10T00:16:30.224Z,12.2
2022-08-10T00:17:41.821Z,12
2022-08-10T00:20:10.060Z,12.1
2022-08-10T00:22:38.285Z,11.9
2022-08-10T00:25:06.558Z,11.9
2022-08-10T00:27:34.860Z,11.7
2022-08-10T00:30:03.071Z,11.9
2022-08-10T00:32:31.350Z,11.9
2022-08-10T00:34:59.622Z,11.8
2022-08-10T00:37:27.825Z,11.9
2022-08-10T00:39:56.113Z,11.8
2022-08-10T00:41:12.769Z,11.9
2022-08-10T00:44:52.686Z,12.1
2022-08-10T00:47:20.931Z,12
2022-08-10T00:49:49.188Z,11.9
2022-08-10T00:52:17.448Z,12.1
2022-08-10T00:57:13.965Z,11.8
2022-08-10T00:59:42.171Z,11.9
2022-08-10T01:02:10.428Z,12.1
2022-08-10T01:04:38.742Z,13.7
2022-08-10T01:07:06.999Z,11.7
2022-08-10T01:09:35.276Z,11.6
2022-08-10T01:12:03.493Z,11.8
2022-08-10T01:14:31.754Z,11.8
2022-08-10T01:17:00.033Z,11.6
2022-08-10T01:21:56.537Z,11.7
2022-08-10T01:24:24.828Z,11.9
2022-08-10T01:26:53.035Z,11.7
2022-08-10T01:29:21.279Z,12
2022-08-10T01:30:38.021Z,11.9
2022-08-10T01:31:49.603Z,11.9
2022-08-10T01:34:17.838Z,12.1
2022-08-10T01:41:42.636Z,11.8
2022-08-10T01:44:10.896Z,11.9
2022-08-10T01:46:39.140Z,11.7
2022-08-10T01:49:07.363Z,11.8
2022-08-10T01:51:35.644Z,12
2022-08-10T01:55:20.553Z,11.9
2022-08-10T01:56:32.199Z,12.3
2022-08-10T01:59:00.454Z,12
2022-08-10T02:01:28.674Z,11
2022-08-10T02:03:56.953Z,13.2
2022-08-10T02:06:25.227Z,12.7
2022-08-10T02:08:53.476Z,11.8
2022-08-10T02:11:21.720Z,11.7
2022-08-10T02:13:49.947Z,11.5
2022-08-10T02:16:18.231Z,11.4
2022-08-10T02:18:46.509Z,12.6
2022-08-10T02:20:03.180Z,11.7
2022-08-10T02:21:14.793Z,11.8
2022-08-10T02:28:39.537Z,11.4
2022-08-10T02:31:07.811Z,11.8
2022-08-10T02:33:36.098Z,12.1
2022-08-10T02:41:00.824Z,12.1
2022-08-10T02:43:29.102Z,12.3
2022-08-10T02:44:45.747Z,12.1
2022-08-10T02:45:57.339Z,12.4
2022-08-10T02:48:25.606Z,10.6
2022-08-10T02:50:53.903Z,11.6
2022-08-10T02:53:22.175Z,12.1
2022-08-10T02:55:50.393Z,12.4
2022-08-10T02:58:18.688Z,12.6
2022-08-10T03:00:46.905Z,12.5
2022-08-10T03:03:15.184Z,12.1
2022-08-10T03:05:43.404Z,12.7
2022-08-10T03:08:11.701Z,12
2022-08-10T03:10:39.951Z,12.5
2022-08-10T03:13:08.254Z,12.5
2022-08-10T03:18:04.755Z,12.6
2022-08-10T03:20:32.970Z,12.3
2022-08-10T03:23:01.231Z,12.6
2022-08-10T03:25:29.533Z,12.3
2022-08-10T03:27:57.759Z,11.7
2022-08-10T03:30:26.011Z,11.2
2022-08-10T03:32:54.328Z,12.6
2022-08-10T03:34:10.999Z,12.1
2022-08-10T03:35:22.543Z,12.9
2022-08-10T03:37:50.826Z,10.9
2022-08-10T03:40:19.049Z,11.8
2022-08-10T03:42:47.324Z,12
2022-08-10T03:45:15.598Z,12.7
2022-08-10T03:47:43.828Z,12.1
2022-08-10T03:50:12.113Z,12.8
2022-08-10T03:52:40.389Z,11.1
2022-08-10T03:55:08.656Z,12.8
2022-08-10T03:57:36.905Z,13
2022-08-10T03:58:53.523Z,13
2022-08-10T04:00:05.165Z,12.1
2022-08-10T04:02:33.375Z,13.3
2022-08-10T04:05:01.626Z,12.5
2022-08-10T04:07:29.927Z,12.5
2022-08-10T04:09:58.197Z,12.6
2022-08-10T04:12:26.447Z,12.9
2022-08-10T04:14:54.685Z,12.1
2022-08-10T04:17:22.957Z,11.3
2022-08-10T04:19:51.245Z,12.6
2022-08-10T04:22:19.499Z,12.6
2022-08-10T04:23:36.114Z,12.1
2022-08-10T04:24:47.735Z,13.3
2022-08-10T04:27:15.965Z,11.8
2022-08-10T04:29:44.250Z,12.9
2022-08-10T04:34:40.752Z,12
2022-08-10T04:39:37.307Z,13.4
2022-08-10T04:42:05.518Z,12.7
2022-08-10T04:44:33.823Z,11.3
2022-08-10T04:47:02.064Z,12.7
2022-08-10T04:48:18.714Z,13.4
2022-08-10T04:49:30.360Z,13.1
2022-08-10T04:54:26.853Z,12.8
2022-08-10T04:56:55.113Z,13.5
2022-08-10T04:59:23.336Z,11.8
2022-08-10T05:01:51.639Z,13.4
2022-08-10T05:04:19.896Z,14
2022-08-10T05:09:16.373Z,13.5
2022-08-10T05:11:44.658Z,12.9
2022-08-10T05:14:12.906Z,13.5
2022-08-10T05:16:41.195Z,12.7
2022-08-10T05:19:09.454Z,12.4
2022-08-10T05:24:05.956Z,11.9
2022-08-10T05:26:34.234Z,12.8
2022-08-10T05:31:30.770Z,12.6
2022-08-10T05:33:58.967Z,11.6
2022-08-10T05:36:27.220Z,11.7
2022-08-10T05:37:43.920Z,12.3
2022-08-10T05:38:55.510Z,12.2
2022-08-10T05:41:23.794Z,11.8
2022-08-10T05:46:20.287Z,12.3
2022-08-10T05:48:48.536Z,11.9
2022-08-10T05:51:16.782Z,12.9
2022-08-10T05:53:45.031Z,12.3
2022-08-10T05:56:13.301Z,12.5
2022-08-10T06:01:09.855Z,13.3
2022-08-10T06:02:26.547Z,12.4
2022-08-10T06:03:38.084Z,13.3
2022-08-10T06:06:06.382Z,13.2
2022-08-10T06:08:34.591Z,13.4
2022-08-10T06:11:02.899Z,14
2022-08-10T06:13:31.116Z,13
2022-08-10T06:15:59.369Z,13.5
2022-08-10T06:18:27.658Z,13.3
2022-08-10T06:20:55.932Z,13.4
2022-08-10T06:23:24.166Z,13
2022-08-10T06:25:52.439Z,13.5
2022-08-10T06:27:09.065Z,13.4
2022-08-10T06:28:20.678Z,13.5
2022-08-10T06:30:48.980Z,13.8
2022-08-10T06:33:17.179Z,12.7
2022-08-10T06:35:45.460Z,13.6
2022-08-10T06:38:13.712Z,13
2022-08-10T06:40:41.990Z,13.1
2022-08-10T06:43:10.226Z,13.4
2022-08-10T06:48:06.748Z,13.3
2022-08-10T06:50:35.031Z,13.8
2022-08-10T06:51:51.669Z,13.6
2022-08-10T06:53:03.283Z,13.4
2022-08-10T06:55:31.541Z,13.6
2022-08-10T06:57:59.789Z,12.7
2022-08-10T07:00:28.064Z,13.8
2022-08-10T07:02:56.300Z,13.7
2022-08-10T07:05:24.612Z,13.1
2022-08-10T07:07:52.859Z,13.6
2022-08-10T07:10:21.127Z,13.5
2022-08-10T07:17:45.879Z,13.8
2022-08-10T07:20:14.141Z,14
2022-08-10T07:22:42.388Z,14
2022-08-10T07:25:10.647Z,13.6
2022-08-10T07:27:38.899Z,13.9
2022-08-10T07:32:35.407Z,13.8
2022-08-10T07:37:31.000Z,13.7
2022-08-10T07:40:00.235Z,13.9
2022-08-10T07:41:16.885Z,13.8
2022-08-10T07:44:56.773Z,13.3
2022-08-10T07:47:24.997Z,13.2
2022-08-10T07:49:53.284Z,12.7
2022-08-10T07:52:21.542Z,13.6
2022-08-10T07:54:49.762Z,13.2
2022-08-10T07:57:18.020Z,13.8
2022-08-10T07:59:46.251Z,13.7
2022-08-10T08:02:14.574Z,13.2
2022-08-10T08:04:42.836Z,13.3
2022-08-10T08:05:59.486Z,13.5
2022-08-10T08:07:11.064Z,12.9
2022-08-10T08:09:39.309Z,13.7
2022-08-10T08:12:07.588Z,13.4
2022-08-10T08:14:35.823Z,13
2022-08-10T08:17:04.127Z,13.1
2022-08-10T08:19:32.408Z,13.5
2022-08-10T08:22:00.654Z,12.7
2022-08-10T08:24:28.907Z,13.9
2022-08-10T08:26:57.106Z,13.2
2022-08-10T08:29:25.427Z,13.9
2022-08-10T08:30:42.102Z,13.7
2022-08-10T08:31:53.704Z,13.4
2022-08-10T08:36:50.204Z,12.9
2022-08-10T08:39:18.455Z,13.8
2022-08-10T08:41:46.737Z,13.5
2022-08-10T08:44:14.973Z,12.9
2022-08-10T08:46:43.258Z,13.4
2022-08-10T08:51:39.706Z,13.4
2022-08-10T08:54:08.007Z,13
2022-08-10T08:55:24.661Z,13.6
2022-08-10T08:56:36.262Z,12.7
2022-08-10T08:59:04.506Z,13.6
2022-08-10T09:01:32.780Z,13.1
2022-08-10T09:04:01.034Z,13.6
2022-08-10T09:06:29.327Z,14
2022-08-10T09:08:57.541Z,13.8
2022-08-10T09:11:25.793Z,13.9
2022-08-10T09:13:54.038Z,13.2
2022-08-10T09:18:50.563Z,13.1
2022-08-10T09:21:18.840Z,12.7
2022-08-10T09:23:47.089Z,12.4
2022-08-10T09:26:15.402Z,13.5
2022-08-10T09:28:43.618Z,13.4
2022-08-10T09:33:40.164Z,13.3
2022-08-10T09:36:08.441Z,13.4
2022-08-10T09:38:36.643Z,13.9
2022-08-10T09:41:04.942Z,14.2
2022-08-10T09:43:33.238Z,13.6
2022-08-10T09:44:49.893Z,13.8
2022-08-10T09:50:58.012Z,14
2022-08-10T09:53:26.270Z,13.7
2022-08-10T09:55:54.530Z,13.6
2022-08-10T09:58:22.741Z,13.2
2022-08-10T10:00:51.033Z,13
2022-08-10T10:03:19.279Z,13.1
2022-08-10T10:08:15.810Z,13.5
2022-08-10T10:09:32.458Z,13.5
2022-08-10T10:10:44.067Z,12.9
2022-08-10T10:13:12.347Z,13
2022-08-10T10:15:40.565Z,13.7
2022-08-10T10:18:08.832Z,13.4
2022-08-10T10:20:37.088Z,14.1
2022-08-10T10:23:05.327Z,13.3
2022-08-10T10:25:33.590Z,13.5
2022-08-10T10:28:01.858Z,13.6
2022-08-10T10:30:30.103Z,13
2022-08-10T10:34:15.017Z,13.4
2022-08-10T10:37:54.882Z,13.9
2022-08-10T10:40:23.183Z,14.3
2022-08-10T10:42:51.449Z,14.3
2022-08-10T10:50:16.173Z,14.5
2022-08-10T10:52:44.433Z,15.3
2022-08-10T10:55:12.749Z,15.2
2022-08-10T10:57:40.976Z,15.9
2022-08-10T10:58:57.625Z,16.9
2022-08-10T11:00:09.281Z,17.1
2022-08-10T11:02:37.513Z,17.6
2022-08-10T11:05:05.753Z,17.7
2022-08-10T11:07:34.027Z,18.8
2022-08-10T11:10:02.267Z,19.5
2022-08-10T11:14:58.797Z,21.6
2022-08-10T11:17:27.093Z,22.8
2022-08-10T11:19:55.371Z,23.7
2022-08-10T11:22:23.595Z,24.8
2022-08-10T11:24:51.847Z,26.3
2022-08-10T11:27:20.104Z,27
2022-08-10T11:29:48.378Z,27.6
2022-08-10T11:32:16.634Z,28.7
2022-08-10T11:34:44.903Z,28.6
2022-08-10T11:37:13.195Z,30
2022-08-10T11:39:41.424Z,30.6
2022-08-10T11:44:37.908Z,30
2022-08-10T11:47:06.234Z,31.4
2022-08-10T11:48:22.855Z,32.8
2022-08-10T11:52:02.737Z,32.6
2022-08-10T11:54:30.990Z,33.1
2022-08-10T11:56:59.212Z,32.9
2022-08-10T11:59:27.463Z,33.2
2022-08-10T12:01:55.789Z,31.5
2022-08-10T12:04:24.002Z,36.3
2022-08-10T12:06:52.268Z,29.5
2022-08-10T12:09:20.572Z,28.5
2022-08-10T12:11:48.807Z,25.3
2022-08-10T12:13:05.485Z,24
2022-08-10T12:14:17.089Z,23
2022-08-10T12:16:45.301Z,21.9
2022-08-10T12:19:13.573Z,24.7
2022-08-10T12:21:41.856Z,20
2022-08-10T12:26:38.332Z,18.2
2022-08-10T12:36:31.426Z,16
2022-08-10T12:37:48.040Z,16.2
2022-08-10T12:38:59.700Z,15.7
2022-08-10T12:41:27.930Z,15.8
2022-08-10T12:43:56.187Z,15.9
2022-08-10T12:46:24.470Z,15.6
2022-08-10T12:48:52.739Z,15.4
2022-08-10T12:51:20.996Z,15.1
2022-08-10T12:53:49.261Z,15.4
2022-08-10T12:56:17.485Z,15
2022-08-10T12:58:45.776Z,15.3
2022-08-10T13:01:14.034Z,14.7
2022-08-10T13:02:30.669Z,14.8
2022-08-10T13:03:42.320Z,14.7
2022-08-10T13:06:10.522Z,14.7
2022-08-10T13:08:38.819Z,14.4
2022-08-10T13:11:07.074Z,15.3
2022-08-10T13:13:35.355Z,14.8
2022-08-10T13:16:03.557Z,14.6
2022-08-10T13:21:00.134Z,14
2022-08-10T13:23:28.352Z,13.8
2022-08-10T13:25:56.595Z,13.1
2022-08-10T13:28:24.884Z,13.7
2022-08-10T13:30:53.112Z,12.7
2022-08-10T13:33:21.433Z,12.9
2022-08-10T13:35:49.679Z,13.2
2022-08-10T13:38:17.912Z,13.4
2022-08-10T13:40:46.156Z,13.8
2022-08-10T13:43:14.423Z,13.7
2022-08-10T13:45:42.703Z,13.5
2022-08-10T13:48:10.979Z,13.3
2022-08-10T13:50:39.213Z,13.7
2022-08-10T13:51:55.920Z,13.4
2022-08-10T13:53:07.473Z,13.4
2022-08-10T13:55:35.781Z,13.5
2022-08-10T13:58:04.031Z,13.4
2022-08-10T14:00:32.247Z,13.3
2022-08-10T14:03:00.486Z,12.8
2022-08-10T14:05:28.764Z,13.2
2022-08-10T14:07:57.011Z,12.4
2022-08-10T14:12:53.527Z,13.3
2022-08-10T14:15:21.788Z,12.5
2022-08-10T14:16:38.450Z,13.2
2022-08-10T14:17:50.047Z,13.6
2022-08-10T14:20:18.328Z,13.9
2022-08-10T14:22:46.629Z,13.8
2022-08-10T14:25:14.830Z,13.4
2022-08-10T14:27:43.076Z,13.7
2022-08-10T14:30:11.399Z,13.1
2022-08-10T14:32:39.626Z,14.1
2022-08-10T14:37:36.164Z,13.8
2022-08-10T14:40:04.407Z,13.9
2022-08-10T14:41:21.111Z,14.1
2022-08-10T14:42:32.647Z,13.4
2022-08-10T14:45:00.938Z,13.1
2022-08-10T14:49:57.477Z,14.1
2022-08-10T14:54:53.940Z,14
2022-08-10T14:57:22.264Z,13.8
2022-08-10T15:02:18.748Z,13.6
2022-08-10T15:04:46.997Z,14.4
2022-08-10T15:06:03.636Z,13.5
2022-08-10T15:07:15.272Z,14
2022-08-10T15:09:43.517Z,13.5
2022-08-10T15:12:11.761Z,13.2
2022-08-10T15:14:40.075Z,13.1
2022-08-10T15:17:08.335Z,13.1
2022-08-10T15:19:36.587Z,13.4
2022-08-10T15:22:04.795Z,12.3
2022-08-10T15:24:33.080Z,12.8
2022-08-10T15:27:01.368Z,12.6
2022-08-10T15:29:29.622Z,12.6
2022-08-10T15:34:26.149Z,12.7
2022-08-10T15:36:54.344Z,11.8
2022-08-10T15:39:22.624Z,13.3
2022-08-10T15:41:50.907Z,13.2
2022-08-10T15:46:47.435Z,12.7
2022-08-10T15:49:15.678Z,13.1
2022-08-10T15:54:12.180Z,13.1
2022-08-10T15:55:28.841Z,12.9
2022-08-10T15:56:40.465Z,12.9
2022-08-10T15:59:08.719Z,12.8
2022-08-10T16:01:36.938Z,12.5
2022-08-10T16:04:05.249Z,12.8
2022-08-10T16:06:33.487Z,12.8
2022-08-10T16:09:01.741Z,12.2
2022-08-10T16:11:29.976Z,12.2
2022-08-10T16:13:58.256Z,11.8
2022-08-10T16:16:26.479Z,13.6
2022-08-10T16:18:54.734Z,13.3
2022-08-10T16:20:11.434Z,12.9
2022-08-10T16:21:23.001Z,12.5
2022-08-10T16:23:51.335Z,12.8
2022-08-10T16:26:19.557Z,12.5
2022-08-10T16:28:47.801Z,12.7
2022-08-10T16:31:16.093Z,13.3
2022-08-10T16:33:44.295Z,12.8
2022-08-10T16:36:12.606Z,12.1
2022-08-10T16:38:40.874Z,13
2022-08-10T16:41:09.071Z,12.8
2022-08-10T16:43:37.397Z,12.8
2022-08-10T16:44:54.041Z,12.5
2022-08-10T16:46:05.593Z,11.4
2022-08-10T16:53:30.434Z,12.8
2022-08-10T16:55:58.647Z,12.5
2022-08-10T16:58:26.888Z,12.6
2022-08-10T17:03:23.436Z,11.6
2022-08-10T17:05:51.668Z,11.6
2022-08-10T17:08:19.971Z,10.8
2022-08-10T17:09:36.605Z,12.1
2022-08-10T17:10:48.244Z,11.8
2022-08-10T17:13:16.468Z,11.7
2022-08-10T17:15:44.700Z,12
2022-08-10T17:18:12.984Z,12.3
2022-08-10T17:20:41.276Z,12.3
2022-08-10T17:25:37.769Z,12.8
2022-08-10T17:28:05.981Z,12.3
2022-08-10T17:30:34.274Z,12.7
2022-08-10T17:33:02.524Z,12.7
2022-08-10T17:37:59.071Z,10
2022-08-10T17:40:27.324Z,11.9
2022-08-10T17:42:55.552Z,12.1
2022-08-10T17:45:23.857Z,11
2022-08-10T17:47:52.078Z,11.3
2022-08-10T17:52:48.566Z,12.6
2022-08-10T17:55:16.841Z,12.5
2022-08-10T17:57:45.091Z,12.7
2022-08-10T17:59:01.764Z,13.2
2022-08-10T18:00:13.383Z,12.6
2022-08-10T18:02:41.640Z,13
2022-08-10T18:10:06.392Z,12.2
2022-08-10T18:12:34.642Z,12.3
2022-08-10T18:17:31.147Z,12.5
2022-08-10T18:23:44.402Z,11.5
2022-08-10T18:24:56.114Z,12.2
2022-08-10T18:29:52.606Z,11.3
2022-08-10T18:32:20.865Z,12
2022-08-10T18:34:49.168Z,12.3
2022-08-10T18:37:17.374Z,11.3
2022-08-10T18:39:45.682Z,11.8
2022-08-10T18:44:42.149Z,11.3
2022-08-10T18:47:10.443Z,11.2
2022-08-10T18:48:26.981Z,12
2022-08-10T18:49:38.677Z,11.8
2022-08-10T18:52:06.971Z,12.1
2022-08-10T18:54:35.205Z,10.9
2022-08-10T18:57:03.489Z,10.9
2022-08-10T19:01:59.962Z,10.7
2022-08-10T19:04:28.237Z,12.8
2022-08-10T19:06:56.466Z,10.3
2022-08-10T19:09:24.729Z,11.4
2022-08-10T19:11:52.991Z,11.3
2022-08-10T19:13:09.560Z,11
2022-08-10T19:14:21.296Z,10.9
2022-08-10T19:16:49.513Z,11.4
2022-08-10T19:19:17.753Z,11.7
2022-08-10T19:21:46.011Z,12.1
2022-08-10T19:24:14.322Z,12
2022-08-10T19:26:42.557Z,12.8
2022-08-10T19:29:10.849Z,12.8
2022-08-10T19:31:39.085Z,12.4
2022-08-10T19:34:07.329Z,12.2
2022-08-10T19:39:03.834Z,11.7
2022-08-10T19:44:00.389Z,12.7
2022-08-10T19:46:28.587Z,12.3
2022-08-10T19:48:56.845Z,12.4
2022-08-10T19:51:25.158Z,14.7
2022-08-10T19:53:53.385Z,12.1
2022-08-10T20:01:18.145Z,12.1
2022-08-10T20:02:34.678Z,12.3
2022-08-10T20:03:46.420Z,11.8
2022-08-10T20:08:42.937Z,11.8
2022-08-10T20:11:11.163Z,12.4
2022-08-10T20:13:39.419Z,12.4
2022-08-10T20:16:07.679Z,12.2
2022-08-10T20:18:35.932Z,12.9
2022-08-10T20:21:04.224Z,12.4
2022-08-10T20:23:32.454Z,12.7
2022-08-10T20:26:00.729Z,13.1
2022-08-10T20:27:17.309Z,12.9
2022-08-10T20:28:29.028Z,13
2022-08-10T20:30:57.229Z,13.1
2022-08-10T20:33:25.517Z,13.1
2022-08-10T20:38:22.036Z,13.2
2022-08-10T20:40:50.249Z,13.2
2022-08-10T20:43:18.563Z,12.7
2022-08-10T20:45:46.842Z,13.4
2022-08-10T20:48:15.037Z,13
2022-08-10T20:51:59.916Z,13.2
2022-08-10T20:53:11.574Z,12.9
2022-08-10T21:00:36.363Z,13.3
2022-08-10T21:03:04.589Z,13
2022-08-10T21:05:32.886Z,13.5
2022-08-10T21:08:01.111Z,12.9
2022-08-10T21:12:57.604Z,12.8
2022-08-10T21:15:25.893Z,13
2022-08-10T21:16:42.480Z,12.7
2022-08-10T21:17:54.115Z,13
2022-08-10T21:20:22.387Z,13
2022-08-10T21:22:50.671Z,11.7
2022-08-10T21:25:18.905Z,12.5
2022-08-10T21:30:15.412Z,11.9
2022-08-10T21:32:43.710Z,12.7
2022-08-10T21:37:40.207Z,12.8
2022-08-10T21:40:08.434Z,12.9
2022-08-10T21:42:36.717Z,12.8
2022-08-10T21:45:05.021Z,12.9
2022-08-10T21:52:29.774Z,12.4
2022-08-10T21:54:57.997Z,12.9
2022-08-10T21:57:26.286Z,13.3
2022-08-10T21:59:54.550Z,12.5
2022-08-10T22:04:51.057Z,12
2022-08-10T22:06:07.645Z,14.3
2022-08-10T22:07:19.330Z,12.2
2022-08-10T22:09:47.568Z,12.3
2022-08-10T22:12:15.851Z,13.1
2022-08-10T22:14:44.114Z,12.7
2022-08-10T22:17:12.320Z,12.7
2022-08-10T22:19:40.631Z,12.5
2022-08-10T22:22:08.860Z,12
2022-08-10T22:24:37.131Z,12.9
2022-08-10T22:27:05.405Z,13.5
2022-08-10T22:29:33.606Z,12.6
2022-08-10T22:30:50.264Z,13.6
2022-08-10T22:32:01.864Z,13.1
2022-08-10T22:34:30.165Z,12.5
2022-08-10T22:36:58.393Z,13
2022-08-10T22:39:26.650Z,13.1
2022-08-10T22:41:54.913Z,13.4
2022-08-10T22:44:23.160Z,13.5
2022-08-10T22:46:51.451Z,13.2
2022-08-10T22:51:47.916Z,12.8
2022-08-10T22:54:16.185Z,12.7
2022-08-10T22:55:32.810Z,11.5
2022-08-10T22:56:44.493Z,12.9
2022-08-10T22:59:12.737Z,12.4
2022-08-10T23:01:40.963Z,12.2
2022-08-10T23:06:37.487Z,12.7
2022-08-10T23:09:05.784Z,12.8
2022-08-10T23:11:34.016Z,12.5
2022-08-10T23:14:02.267Z,12
2022-08-10T23:20:15.413Z,13.3
2022-08-10T23:21:27.036Z,12.9
2022-08-10T23:23:55.276Z,12.6
2022-08-10T23:26:23.536Z,12.5
2022-08-10T23:28:51.782Z,12.8
2022-08-10T23:31:20.084Z,12.4
2022-08-10T23:33:48.359Z,12.6
2022-08-10T23:41:13.130Z,12.4
2022-08-10T23:43:41.361Z,12.5
2022-08-10T23:46:09.614Z,12.4
2022-08-10T23:48:37.917Z,12.2
2022-08-10T23:51:06.139Z,12.5
2022-08-10T23:56:02.690Z,12
2022-08-10T23:58:30.931Z,12.3
